sensor_id;sensor_type;location;lat;lon;timestamp;temperature;humidity
12438;DHT22;6283;51.330;12.374;2022-10-16T00:01:22;16.40;1.00
12438;DHT22;6283;51.330;12.374;2022-10-16T00:03:49;16.40;1.00
12438;DHT22;6283;51.330;12.374;2022-10-16T00:06:16;16.40;1.00
12438;DHT22;6283;51.330;12.374;2022-10-16T00:08:43;16.40;1.00
12438;DHT22;6283;51.330;12.374;2022-10-16T00:11:12;16.10;1.00
12438;DHT22;6283;51.330;12.374;2022-10-16T00:13:39;16.20;1.00
12438;DHT22;6283;51.330;12.374;2022-10-16T00:16:07;16.30;1.00
12438;DHT22;6283;51.330;12.374;2022-10-16T00:18:32;16.20;1.00
12438;DHT22;6283;51.330;12.374;2022-10-16T00:21:07;16.20;1.00
12438;DHT22;6283;51.330;12.374;2022-10-16T00:23:34;16.40;1.00
12438;DHT22;6283;51.330;12.374;2022-10-16T00:26:02;16.10;1.00
12438;DHT22;6283;51.330;12.374;2022-10-16T00:28:28;16.10;1.00
12438;DHT22;6283;51.330;12.374;2022-10-16T00:30:54;16.40;1.00
12438;DHT22;6283;51.330;12.374;2022-10-16T00:33:20;16.10;1.00
12438;DHT22;6283;51.330;12.374;2022-10-16T00:35:46;16.00;1.00
12438;DHT22;6283;51.330;12.374;2022-10-16T00:38:12;16.30;1.00
12438;DHT22;6283;51.330;12.374;2022-10-16T00:40:37;16.10;1.00
12438;DHT22;6283;51.330;12.374;2022-10-16T00:43:12;16.10;1.00
12438;DHT22;6283;51.330;12.374;2022-10-16T00:45:38;16.10;1.00
12438;DHT22;6283;51.330;12.374;2022-10-16T00:48:03;16.30;1.00
12438;DHT22;6283;51.330;12.374;2022-10-16T00:50:32;16.20;1.00
12438;DHT22;6283;51.330;12.374;2022-10-16T00:52:59;16.30;1.00
12438;DHT22;6283;51.330;12.374;2022-10-16T00:55:26;16.50;1.00
12438;DHT22;6283;51.330;12.374;2022-10-16T00:57:54;16.30;1.00
12438;DHT22;6283;51.330;12.374;2022-10-16T01:00:25;16.40;1.00
12438;DHT22;6283;51.330;12.374;2022-10-16T01:02:56;16.40;1.00
12438;DHT22;6283;51.330;12.374;2022-10-16T01:05:24;16.40;1.00
12438;DHT22;6283;51.330;12.374;2022-10-16T01:08:26;16.40;1.00
12438;DHT22;6283;51.330;12.374;2022-10-16T01:10:59;16.50;1.00
12438;DHT22;6283;51.330;12.374;2022-10-16T01:13:37;16.20;1.00
12438;DHT22;6283;51.330;12.374;2022-10-16T01:16:07;16.40;1.00
12438;DHT22;6283;51.330;12.374;2022-10-16T01:21:11;16.60;1.00
12438;DHT22;6283;51.330;12.374;2022-10-16T01:26:31;16.30;1.00
12438;DHT22;6283;51.330;12.374;2022-10-16T01:29:10;16.40;1.00
12438;DHT22;6283;51.330;12.374;2022-10-16T01:31:41;16.60;1.00
12438;DHT22;6283;51.330;12.374;2022-10-16T01:34:14;16.30;1.00
12438;DHT22;6283;51.330;12.374;2022-10-16T01:36:49;16.30;1.00
12438;DHT22;6283;51.330;12.374;2022-10-16T01:39:20;16.20;1.00
12438;DHT22;6283;51.330;12.374;2022-10-16T01:41:51;16.30;1.00
12438;DHT22;6283;51.330;12.374;2022-10-16T01:44:24;16.20;1.00
12438;DHT22;6283;51.330;12.374;2022-10-16T01:46:52;16.20;1.00
12438;DHT22;6283;51.330;12.374;2022-10-16T01:49:20;16.20;1.00
12438;DHT22;6283;51.330;12.374;2022-10-16T01:51:50;16.40;1.00
12438;DHT22;6283;51.330;12.374;2022-10-16T01:54:19;16.20;1.00
12438;DHT22;6283;51.330;12.374;2022-10-16T01:56:47;16.20;1.00
12438;DHT22;6283;51.330;12.374;2022-10-16T01:59:18;16.10;1.00
12438;DHT22;6283;51.330;12.374;2022-10-16T02:01:50;16.10;1.00
12438;DHT22;6283;51.330;12.374;2022-10-16T02:04:23;16.20;1.00
12438;DHT22;6283;51.330;12.374;2022-10-16T02:06:49;16.00;1.00
12438;DHT22;6283;51.330;12.374;2022-10-16T02:09:15;16.00;1.00
12438;DHT22;6283;51.330;12.374;2022-10-16T02:11:42;15.90;1.00
12438;DHT22;6283;51.330;12.374;2022-10-16T02:14:08;16.00;1.00
12438;DHT22;6283;51.330;12.374;2022-10-16T02:16:40;16.00;1.00
12438;DHT22;6283;51.330;12.374;2022-10-16T02:19:07;15.90;1.00
12438;DHT22;6283;51.330;12.374;2022-10-16T02:21:43;16.10;1.00
12438;DHT22;6283;51.330;12.374;2022-10-16T02:27:03;16.00;1.00
12438;DHT22;6283;51.330;12.374;2022-10-16T02:29:30;15.90;1.00
12438;DHT22;6283;51.330;12.374;2022-10-16T02:32:02;15.90;1.00
12438;DHT22;6283;51.330;12.374;2022-10-16T02:34:31;15.90;1.00
12438;DHT22;6283;51.330;12.374;2022-10-16T02:36:58;15.80;1.00
12438;DHT22;6283;51.330;12.374;2022-10-16T02:39:27;16.00;1.00
12438;DHT22;6283;51.330;12.374;2022-10-16T02:41:52;16.00;1.00
12438;DHT22;6283;51.330;12.374;2022-10-16T02:44:18;16.00;1.00
12438;DHT22;6283;51.330;12.374;2022-10-16T02:46:43;16.00;1.00
12438;DHT22;6283;51.330;12.374;2022-10-16T02:49:09;15.90;1.00
12438;DHT22;6283;51.330;12.374;2022-10-16T02:51:35;15.80;1.00
12438;DHT22;6283;51.330;12.374;2022-10-16T02:54:01;15.80;1.00
12438;DHT22;6283;51.330;12.374;2022-10-16T02:56:27;16.00;1.00
12438;DHT22;6283;51.330;12.374;2022-10-16T02:58:53;16.10;1.00
12438;DHT22;6283;51.330;12.374;2022-10-16T03:01:18;15.80;1.00
12438;DHT22;6283;51.330;12.374;2022-10-16T03:03:44;15.80;1.00
12438;DHT22;6283;51.330;12.374;2022-10-16T03:06:09;15.70;1.00
12438;DHT22;6283;51.330;12.374;2022-10-16T03:08:35;15.70;1.00
12438;DHT22;6283;51.330;12.374;2022-10-16T03:11:00;15.70;1.00
12438;DHT22;6283;51.330;12.374;2022-10-16T03:13:26;15.80;1.00
12438;DHT22;6283;51.330;12.374;2022-10-16T03:15:51;15.50;1.00
12438;DHT22;6283;51.330;12.374;2022-10-16T03:18:17;15.70;1.00
12438;DHT22;6283;51.330;12.374;2022-10-16T03:20:43;15.90;1.00
12438;DHT22;6283;51.330;12.374;2022-10-16T03:23:09;15.60;1.00
12438;DHT22;6283;51.330;12.374;2022-10-16T03:25:35;15.60;1.00
12438;DHT22;6283;51.330;12.374;2022-10-16T03:28:00;15.70;1.00
12438;DHT22;6283;51.330;12.374;2022-10-16T03:30:26;15.60;1.00
12438;DHT22;6283;51.330;12.374;2022-10-16T03:32:52;15.60;1.00
12438;DHT22;6283;51.330;12.374;2022-10-16T03:35:20;15.50;1.00
12438;DHT22;6283;51.330;12.374;2022-10-16T03:37:45;15.60;1.00
12438;DHT22;6283;51.330;12.374;2022-10-16T03:40:11;15.60;1.00
12438;DHT22;6283;51.330;12.374;2022-10-16T03:42:37;15.60;1.00
12438;DHT22;6283;51.330;12.374;2022-10-16T03:45:03;15.70;1.00
12438;DHT22;6283;51.330;12.374;2022-10-16T03:47:28;15.80;1.00
12438;DHT22;6283;51.330;12.374;2022-10-16T03:49:54;15.50;1.00
12438;DHT22;6283;51.330;12.374;2022-10-16T03:52:19;15.60;1.00
12438;DHT22;6283;51.330;12.374;2022-10-16T03:54:45;15.60;1.00
12438;DHT22;6283;51.330;12.374;2022-10-16T03:57:11;15.60;1.00
12438;DHT22;6283;51.330;12.374;2022-10-16T03:59:36;15.60;1.00
12438;DHT22;6283;51.330;12.374;2022-10-16T04:02:02;15.50;1.00
12438;DHT22;6283;51.330;12.374;2022-10-16T04:04:27;15.70;1.00
12438;DHT22;6283;51.330;12.374;2022-10-16T04:06:53;15.70;1.00
12438;DHT22;6283;51.330;12.374;2022-10-16T04:09:18;15.60;1.00
12438;DHT22;6283;51.330;12.374;2022-10-16T04:11:44;15.60;1.00
12438;DHT22;6283;51.330;12.374;2022-10-16T04:14:10;15.50;1.00
12438;DHT22;6283;51.330;12.374;2022-10-16T04:16:35;15.70;1.00
12438;DHT22;6283;51.330;12.374;2022-10-16T04:19:01;15.50;1.00
12438;DHT22;6283;51.330;12.374;2022-10-16T04:21:26;15.50;1.00
12438;DHT22;6283;51.330;12.374;2022-10-16T04:23:52;15.60;1.00
12438;DHT22;6283;51.330;12.374;2022-10-16T04:26:17;15.50;1.00
12438;DHT22;6283;51.330;12.374;2022-10-16T04:28:43;15.30;1.00
12438;DHT22;6283;51.330;12.374;2022-10-16T04:31:09;15.60;1.00
12438;DHT22;6283;51.330;12.374;2022-10-16T04:33:34;15.50;1.00
12438;DHT22;6283;51.330;12.374;2022-10-16T04:36:00;15.40;1.00
12438;DHT22;6283;51.330;12.374;2022-10-16T04:38:27;15.30;1.00
12438;DHT22;6283;51.330;12.374;2022-10-16T04:40:52;15.40;1.00
12438;DHT22;6283;51.330;12.374;2022-10-16T04:43:19;15.20;1.00
12438;DHT22;6283;51.330;12.374;2022-10-16T04:45:45;15.40;1.00
12438;DHT22;6283;51.330;12.374;2022-10-16T04:48:10;15.20;1.00
12438;DHT22;6283;51.330;12.374;2022-10-16T04:50:36;15.30;1.00
12438;DHT22;6283;51.330;12.374;2022-10-16T04:53:01;15.30;1.00
12438;DHT22;6283;51.330;12.374;2022-10-16T04:55:27;15.50;1.00
12438;DHT22;6283;51.330;12.374;2022-10-16T04:57:53;15.60;1.00
12438;DHT22;6283;51.330;12.374;2022-10-16T05:00:18;15.50;1.00
12438;DHT22;6283;51.330;12.374;2022-10-16T05:02:44;15.60;1.00
12438;DHT22;6283;51.330;12.374;2022-10-16T05:05:09;15.20;1.00
12438;DHT22;6283;51.330;12.374;2022-10-16T05:07:35;15.40;1.00
12438;DHT22;6283;51.330;12.374;2022-10-16T05:10:01;15.40;1.00
12438;DHT22;6283;51.330;12.374;2022-10-16T05:12:26;15.50;1.00
12438;DHT22;6283;51.330;12.374;2022-10-16T05:14:52;15.60;1.00
12438;DHT22;6283;51.330;12.374;2022-10-16T05:17:17;15.40;1.00
12438;DHT22;6283;51.330;12.374;2022-10-16T05:19:43;15.30;1.00
12438;DHT22;6283;51.330;12.374;2022-10-16T05:22:08;15.40;1.00
12438;DHT22;6283;51.330;12.374;2022-10-16T05:24:34;15.40;1.00
12438;DHT22;6283;51.330;12.374;2022-10-16T05:27:00;15.40;1.00
12438;DHT22;6283;51.330;12.374;2022-10-16T05:29:25;15.40;1.00
12438;DHT22;6283;51.330;12.374;2022-10-16T05:31:52;15.50;1.00
12438;DHT22;6283;51.330;12.374;2022-10-16T05:34:18;15.30;1.00
12438;DHT22;6283;51.330;12.374;2022-10-16T05:36:44;15.50;1.00
12438;DHT22;6283;51.330;12.374;2022-10-16T05:39:10;15.40;1.00
12438;DHT22;6283;51.330;12.374;2022-10-16T05:41:36;15.30;1.00
12438;DHT22;6283;51.330;12.374;2022-10-16T05:44:04;15.60;1.00
12438;DHT22;6283;51.330;12.374;2022-10-16T05:46:30;15.50;1.00
12438;DHT22;6283;51.330;12.374;2022-10-16T05:48:56;15.40;1.00
12438;DHT22;6283;51.330;12.374;2022-10-16T05:51:22;15.30;1.00
12438;DHT22;6283;51.330;12.374;2022-10-16T05:53:47;15.30;1.00
12438;DHT22;6283;51.330;12.374;2022-10-16T05:56:13;15.40;1.00
12438;DHT22;6283;51.330;12.374;2022-10-16T05:58:39;15.30;1.00
12438;DHT22;6283;51.330;12.374;2022-10-16T06:01:11;15.40;1.00
12438;DHT22;6283;51.330;12.374;2022-10-16T06:03:37;15.60;1.00
12438;DHT22;6283;51.330;12.374;2022-10-16T06:06:09;15.30;1.00
12438;DHT22;6283;51.330;12.374;2022-10-16T06:08:35;15.70;1.00
12438;DHT22;6283;51.330;12.374;2022-10-16T06:11:06;15.50;1.00
12438;DHT22;6283;51.330;12.374;2022-10-16T06:13:32;15.70;1.00
12438;DHT22;6283;51.330;12.374;2022-10-16T06:15:59;15.60;1.00
12438;DHT22;6283;51.330;12.374;2022-10-16T06:18:26;15.50;1.00
12438;DHT22;6283;51.330;12.374;2022-10-16T06:20:52;15.90;1.00
12438;DHT22;6283;51.330;12.374;2022-10-16T06:23:18;15.70;1.00
12438;DHT22;6283;51.330;12.374;2022-10-16T06:25:43;15.90;1.00
12438;DHT22;6283;51.330;12.374;2022-10-16T06:28:09;15.90;1.00
12438;DHT22;6283;51.330;12.374;2022-10-16T06:30:35;15.60;1.00
12438;DHT22;6283;51.330;12.374;2022-10-16T06:33:00;15.90;1.00
12438;DHT22;6283;51.330;12.374;2022-10-16T06:35:26;15.90;1.00
12438;DHT22;6283;51.330;12.374;2022-10-16T06:37:53;16.00;1.00
12438;DHT22;6283;51.330;12.374;2022-10-16T06:40:18;15.80;1.00
12438;DHT22;6283;51.330;12.374;2022-10-16T06:42:44;16.00;1.00
12438;DHT22;6283;51.330;12.374;2022-10-16T06:45:10;16.10;1.00
12438;DHT22;6283;51.330;12.374;2022-10-16T06:47:36;16.10;1.00
12438;DHT22;6283;51.330;12.374;2022-10-16T06:50:01;15.90;1.00
12438;DHT22;6283;51.330;12.374;2022-10-16T06:52:30;16.30;1.00
12438;DHT22;6283;51.330;12.374;2022-10-16T06:54:55;16.20;1.00
12438;DHT22;6283;51.330;12.374;2022-10-16T06:57:21;16.30;1.00
12438;DHT22;6283;51.330;12.374;2022-10-16T06:59:46;16.20;1.00
12438;DHT22;6283;51.330;12.374;2022-10-16T07:02:12;16.20;1.00
12438;DHT22;6283;51.330;12.374;2022-10-16T07:04:37;16.30;1.00
12438;DHT22;6283;51.330;12.374;2022-10-16T07:07:03;16.30;1.00
12438;DHT22;6283;51.330;12.374;2022-10-16T07:09:29;16.30;1.00
12438;DHT22;6283;51.330;12.374;2022-10-16T07:11:54;16.30;1.00
12438;DHT22;6283;51.330;12.374;2022-10-16T07:14:21;16.50;1.00
12438;DHT22;6283;51.330;12.374;2022-10-16T07:16:47;16.40;1.00
12438;DHT22;6283;51.330;12.374;2022-10-16T07:19:14;16.40;1.00
12438;DHT22;6283;51.330;12.374;2022-10-16T07:21:41;16.50;1.00
12438;DHT22;6283;51.330;12.374;2022-10-16T07:24:11;16.50;1.00
12438;DHT22;6283;51.330;12.374;2022-10-16T07:26:38;16.60;1.00
12438;DHT22;6283;51.330;12.374;2022-10-16T07:29:12;16.70;1.00
12438;DHT22;6283;51.330;12.374;2022-10-16T07:31:39;16.80;1.00
12438;DHT22;6283;51.330;12.374;2022-10-16T07:34:05;16.80;1.00
12438;DHT22;6283;51.330;12.374;2022-10-16T07:36:31;16.80;1.00
12438;DHT22;6283;51.330;12.374;2022-10-16T07:38:56;16.90;1.00
12438;DHT22;6283;51.330;12.374;2022-10-16T07:41:22;16.90;1.00
12438;DHT22;6283;51.330;12.374;2022-10-16T07:43:50;17.00;1.00
12438;DHT22;6283;51.330;12.374;2022-10-16T07:46:16;17.00;1.00
12438;DHT22;6283;51.330;12.374;2022-10-16T07:48:42;17.00;1.00
12438;DHT22;6283;51.330;12.374;2022-10-16T07:51:11;17.10;1.00
12438;DHT22;6283;51.330;12.374;2022-10-16T07:53:37;17.20;1.00
12438;DHT22;6283;51.330;12.374;2022-10-16T07:56:05;17.30;1.00
12438;DHT22;6283;51.330;12.374;2022-10-16T07:58:31;17.40;1.00
12438;DHT22;6283;51.330;12.374;2022-10-16T08:00:57;17.50;1.00
12438;DHT22;6283;51.330;12.374;2022-10-16T08:03:24;17.60;1.00
12438;DHT22;6283;51.330;12.374;2022-10-16T08:05:49;17.70;1.00
12438;DHT22;6283;51.330;12.374;2022-10-16T08:08:16;17.80;1.00
12438;DHT22;6283;51.330;12.374;2022-10-16T08:10:42;17.80;1.00
12438;DHT22;6283;51.330;12.374;2022-10-16T08:13:07;18.00;1.00
12438;DHT22;6283;51.330;12.374;2022-10-16T08:15:33;18.10;1.00
12438;DHT22;6283;51.330;12.374;2022-10-16T08:18:02;18.20;1.00
12438;DHT22;6283;51.330;12.374;2022-10-16T08:20:28;18.40;1.00
12438;DHT22;6283;51.330;12.374;2022-10-16T08:22:54;18.50;1.00
12438;DHT22;6283;51.330;12.374;2022-10-16T08:25:21;18.70;1.00
12438;DHT22;6283;51.330;12.374;2022-10-16T08:27:47;18.80;1.00
12438;DHT22;6283;51.330;12.374;2022-10-16T08:30:13;18.80;1.00
12438;DHT22;6283;51.330;12.374;2022-10-16T08:32:38;18.90;1.00
12438;DHT22;6283;51.330;12.374;2022-10-16T08:35:05;18.90;1.00
12438;DHT22;6283;51.330;12.374;2022-10-16T08:37:31;18.90;1.00
12438;DHT22;6283;51.330;12.374;2022-10-16T08:39:57;18.80;1.00
12438;DHT22;6283;51.330;12.374;2022-10-16T08:50:50;19.00;1.00
12438;DHT22;6283;51.330;12.374;2022-10-16T08:56:06;19.00;1.00
12438;DHT22;6283;51.330;12.374;2022-10-16T08:58:32;19.10;1.00
12438;DHT22;6283;51.330;12.374;2022-10-16T09:01:03;19.20;1.00
12438;DHT22;6283;51.330;12.374;2022-10-16T09:04:00;19.20;1.00
12438;DHT22;6283;51.330;12.374;2022-10-16T09:17:47;19.50;1.00
12438;DHT22;6283;51.330;12.374;2022-10-16T09:25:30;19.70;1.00
12438;DHT22;6283;51.330;12.374;2022-10-16T09:27:56;19.70;1.00
12438;DHT22;6283;51.330;12.374;2022-10-16T09:30:22;19.70;1.00
12438;DHT22;6283;51.330;12.374;2022-10-16T09:32:52;19.70;1.00
12438;DHT22;6283;51.330;12.374;2022-10-16T09:35:31;19.70;1.00
12438;DHT22;6283;51.330;12.374;2022-10-16T09:37:57;19.80;1.00
12438;DHT22;6283;51.330;12.374;2022-10-16T09:40:32;19.80;1.00
12438;DHT22;6283;51.330;12.374;2022-10-16T09:46:03;19.90;1.00
12438;DHT22;6283;51.330;12.374;2022-10-16T09:48:47;20.00;1.00
12438;DHT22;6283;51.330;12.374;2022-10-16T09:53:48;20.10;1.00
12438;DHT22;6283;51.330;12.374;2022-10-16T09:56:43;20.00;1.00
12438;DHT22;6283;51.330;12.374;2022-10-16T09:59:19;20.00;1.00
12438;DHT22;6283;51.330;12.374;2022-10-16T10:01:53;19.90;1.00
12438;DHT22;6283;51.330;12.374;2022-10-16T10:04:20;19.90;1.00
12438;DHT22;6283;51.330;12.374;2022-10-16T10:06:49;19.90;1.00
12438;DHT22;6283;51.330;12.374;2022-10-16T10:09:27;20.00;1.00
12438;DHT22;6283;51.330;12.374;2022-10-16T10:12:04;20.00;1.00
12438;DHT22;6283;51.330;12.374;2022-10-16T10:14:37;20.20;1.00
12438;DHT22;6283;51.330;12.374;2022-10-16T10:17:14;20.30;1.00
12438;DHT22;6283;51.330;12.374;2022-10-16T10:19:49;20.40;1.00
12438;DHT22;6283;51.330;12.374;2022-10-16T10:22:40;20.40;1.00
12438;DHT22;6283;51.330;12.374;2022-10-16T10:30:55;20.40;1.00
12438;DHT22;6283;51.330;12.374;2022-10-16T10:35:59;20.40;1.00
12438;DHT22;6283;51.330;12.374;2022-10-16T10:44:11;20.40;1.00
12438;DHT22;6283;51.330;12.374;2022-10-16T10:46:51;20.40;1.00
12438;DHT22;6283;51.330;12.374;2022-10-16T10:49:32;20.30;1.00
12438;DHT22;6283;51.330;12.374;2022-10-16T10:57:40;20.30;1.00
12438;DHT22;6283;51.330;12.374;2022-10-16T11:03:13;20.30;1.00
12438;DHT22;6283;51.330;12.374;2022-10-16T11:08:36;20.20;1.00
12438;DHT22;6283;51.330;12.374;2022-10-16T11:16:37;20.30;1.00
12438;DHT22;6283;51.330;12.374;2022-10-16T11:19:12;20.30;1.00
12438;DHT22;6283;51.330;12.374;2022-10-16T11:21:44;20.30;1.00
12438;DHT22;6283;51.330;12.374;2022-10-16T11:30:26;20.40;1.00
12438;DHT22;6283;51.330;12.374;2022-10-16T11:35:37;20.40;1.00
12438;DHT22;6283;51.330;12.374;2022-10-16T11:38:14;20.40;1.00
12438;DHT22;6283;51.330;12.374;2022-10-16T11:40:43;20.50;1.00
12438;DHT22;6283;51.330;12.374;2022-10-16T11:43:25;20.60;1.00
12438;DHT22;6283;51.330;12.374;2022-10-16T11:45:54;20.60;1.00
12438;DHT22;6283;51.330;12.374;2022-10-16T11:48:41;20.70;1.00
12438;DHT22;6283;51.330;12.374;2022-10-16T11:51:35;20.70;1.00
12438;DHT22;6283;51.330;12.374;2022-10-16T11:56:48;20.80;1.00
12438;DHT22;6283;51.330;12.374;2022-10-16T12:00:18;20.70;1.00
12438;DHT22;6283;51.330;12.374;2022-10-16T12:05:09;20.80;1.00
12438;DHT22;6283;51.330;12.374;2022-10-16T12:07:41;20.80;1.00
12438;DHT22;6283;51.330;12.374;2022-10-16T12:10:24;20.80;1.00
12438;DHT22;6283;51.330;12.374;2022-10-16T12:12:50;20.80;1.00
12438;DHT22;6283;51.330;12.374;2022-10-16T12:17:46;20.80;1.00
12438;DHT22;6283;51.330;12.374;2022-10-16T12:22:41;20.70;1.00
12438;DHT22;6283;51.330;12.374;2022-10-16T12:30:41;20.50;1.00
12438;DHT22;6283;51.330;12.374;2022-10-16T12:35:53;20.40;1.00
12438;DHT22;6283;51.330;12.374;2022-10-16T12:41:04;20.40;1.00
12438;DHT22;6283;51.330;12.374;2022-10-16T12:46:26;20.70;1.00
12438;DHT22;6283;51.330;12.374;2022-10-16T12:54:12;20.60;1.00
12438;DHT22;6283;51.330;12.374;2022-10-16T12:59:48;20.40;1.00
12438;DHT22;6283;51.330;12.374;2022-10-16T13:02:49;20.40;1.00
12438;DHT22;6283;51.330;12.374;2022-10-16T13:13:32;20.30;1.00
12438;DHT22;6283;51.330;12.374;2022-10-16T13:16:10;20.40;1.00
12438;DHT22;6283;51.330;12.374;2022-10-16T13:21:29;20.60;1.00
12438;DHT22;6283;51.330;12.374;2022-10-16T13:29:36;21.00;1.00
12438;DHT22;6283;51.330;12.374;2022-10-16T13:32:07;21.10;1.00
12438;DHT22;6283;51.330;12.374;2022-10-16T13:34:44;21.30;1.00
12438;DHT22;6283;51.330;12.374;2022-10-16T13:37:18;21.40;1.00
12438;DHT22;6283;51.330;12.374;2022-10-16T13:39:45;21.60;1.00
12438;DHT22;6283;51.330;12.374;2022-10-16T13:42:13;22.00;1.00
12438;DHT22;6283;51.330;12.374;2022-10-16T13:44:43;22.30;1.00
12438;DHT22;6283;51.330;12.374;2022-10-16T13:47:24;22.70;1.00
12438;DHT22;6283;51.330;12.374;2022-10-16T13:50:05;23.10;1.00
12438;DHT22;6283;51.330;12.374;2022-10-16T13:52:32;23.30;1.00
12438;DHT22;6283;51.330;12.374;2022-10-16T13:54:57;23.20;1.00
12438;DHT22;6283;51.330;12.374;2022-10-16T13:57:24;23.00;1.00
12438;DHT22;6283;51.330;12.374;2022-10-16T13:59:50;22.70;1.00
12438;DHT22;6283;51.330;12.374;2022-10-16T14:04:53;22.10;1.00
12438;DHT22;6283;51.330;12.374;2022-10-16T14:07:24;21.90;1.00
12438;DHT22;6283;51.330;12.374;2022-10-16T14:09:52;21.70;1.00
12438;DHT22;6283;51.330;12.374;2022-10-16T14:12:18;21.50;1.00
12438;DHT22;6283;51.330;12.374;2022-10-16T14:14:49;21.40;1.00
12438;DHT22;6283;51.330;12.374;2022-10-16T14:17:25;21.20;1.00
12438;DHT22;6283;51.330;12.374;2022-10-16T14:19:53;21.10;1.00
12438;DHT22;6283;51.330;12.374;2022-10-16T14:24:55;21.10;1.00
12438;DHT22;6283;51.330;12.374;2022-10-16T14:32:33;21.20;1.00
12438;DHT22;6283;51.330;12.374;2022-10-16T14:34:59;21.30;1.00
12438;DHT22;6283;51.330;12.374;2022-10-16T14:37:27;21.40;1.00
12438;DHT22;6283;51.330;12.374;2022-10-16T14:39:54;21.50;1.00
12438;DHT22;6283;51.330;12.374;2022-10-16T14:42:22;21.50;1.00
12438;DHT22;6283;51.330;12.374;2022-10-16T14:44:50;21.60;1.00
12438;DHT22;6283;51.330;12.374;2022-10-16T14:47:21;21.60;1.00
12438;DHT22;6283;51.330;12.374;2022-10-16T14:49:50;21.60;1.00
12438;DHT22;6283;51.330;12.374;2022-10-16T14:52:17;21.50;1.00
12438;DHT22;6283;51.330;12.374;2022-10-16T14:54:42;21.50;1.00
12438;DHT22;6283;51.330;12.374;2022-10-16T14:57:19;21.50;1.00
12438;DHT22;6283;51.330;12.374;2022-10-16T14:59:46;21.50;1.00
12438;DHT22;6283;51.330;12.374;2022-10-16T15:02:34;21.60;1.00
12438;DHT22;6283;51.330;12.374;2022-10-16T15:07:35;22.00;1.00
12438;DHT22;6283;51.330;12.374;2022-10-16T15:10:01;22.30;1.00
12438;DHT22;6283;51.330;12.374;2022-10-16T15:12:26;22.40;1.00
12438;DHT22;6283;51.330;12.374;2022-10-16T15:14:52;22.50;1.00
12438;DHT22;6283;51.330;12.374;2022-10-16T15:17:17;22.60;1.00
12438;DHT22;6283;51.330;12.374;2022-10-16T15:19:43;22.50;1.00
12438;DHT22;6283;51.330;12.374;2022-10-16T15:22:11;22.20;1.00
12438;DHT22;6283;51.330;12.374;2022-10-16T15:24:37;22.00;1.00
12438;DHT22;6283;51.330;12.374;2022-10-16T15:27:02;21.70;1.00
12438;DHT22;6283;51.330;12.374;2022-10-16T15:29:28;21.50;1.00
12438;DHT22;6283;51.330;12.374;2022-10-16T15:31:54;21.30;1.00
12438;DHT22;6283;51.330;12.374;2022-10-16T15:34:19;21.00;1.00
12438;DHT22;6283;51.330;12.374;2022-10-16T15:36:45;20.90;1.00
12438;DHT22;6283;51.330;12.374;2022-10-16T15:39:16;20.70;1.00
12438;DHT22;6283;51.330;12.374;2022-10-16T15:41:44;20.60;1.00
12438;DHT22;6283;51.330;12.374;2022-10-16T15:44:10;20.50;1.00
12438;DHT22;6283;51.330;12.374;2022-10-16T15:46:35;20.40;1.00
12438;DHT22;6283;51.330;12.374;2022-10-16T15:49:02;20.30;1.00
12438;DHT22;6283;51.330;12.374;2022-10-16T15:51:28;20.30;1.00
12438;DHT22;6283;51.330;12.374;2022-10-16T15:53:59;20.20;1.00
12438;DHT22;6283;51.330;12.374;2022-10-16T15:56:27;20.10;1.00
12438;DHT22;6283;51.330;12.374;2022-10-16T15:58:55;20.10;1.00
12438;DHT22;6283;51.330;12.374;2022-10-16T16:01:21;20.00;1.00
12438;DHT22;6283;51.330;12.374;2022-10-16T16:03:47;20.00;1.00
12438;DHT22;6283;51.330;12.374;2022-10-16T16:06:13;20.00;1.00
12438;DHT22;6283;51.330;12.374;2022-10-16T16:08:40;19.90;1.00
12438;DHT22;6283;51.330;12.374;2022-10-16T16:11:10;19.80;1.00
12438;DHT22;6283;51.330;12.374;2022-10-16T16:13:36;19.80;1.00
12438;DHT22;6283;51.330;12.374;2022-10-16T16:16:07;19.70;1.00
12438;DHT22;6283;51.330;12.374;2022-10-16T16:18:33;19.70;1.00
12438;DHT22;6283;51.330;12.374;2022-10-16T16:20:59;19.70;1.00
12438;DHT22;6283;51.330;12.374;2022-10-16T16:23:24;19.70;1.00
12438;DHT22;6283;51.330;12.374;2022-10-16T16:26:07;19.60;1.00
12438;DHT22;6283;51.330;12.374;2022-10-16T16:28:35;19.60;1.00
12438;DHT22;6283;51.330;12.374;2022-10-16T16:31:01;19.60;1.00
12438;DHT22;6283;51.330;12.374;2022-10-16T16:33:27;19.60;1.00
12438;DHT22;6283;51.330;12.374;2022-10-16T16:35:59;19.60;1.00
12438;DHT22;6283;51.330;12.374;2022-10-16T16:38:26;19.60;1.00
12438;DHT22;6283;51.330;12.374;2022-10-16T16:40:51;19.60;1.00
12438;DHT22;6283;51.330;12.374;2022-10-16T16:43:18;19.60;1.00
12438;DHT22;6283;51.330;12.374;2022-10-16T16:45:43;19.60;1.00
12438;DHT22;6283;51.330;12.374;2022-10-16T16:48:09;19.60;1.00
12438;DHT22;6283;51.330;12.374;2022-10-16T16:50:36;19.50;1.00
12438;DHT22;6283;51.330;12.374;2022-10-16T16:53:02;19.50;1.00
12438;DHT22;6283;51.330;12.374;2022-10-16T16:55:27;19.50;1.00
12438;DHT22;6283;51.330;12.374;2022-10-16T16:57:53;19.50;1.00
12438;DHT22;6283;51.330;12.374;2022-10-16T17:00:19;19.40;1.00
12438;DHT22;6283;51.330;12.374;2022-10-16T17:02:51;19.30;1.00
12438;DHT22;6283;51.330;12.374;2022-10-16T17:05:17;19.30;1.00
12438;DHT22;6283;51.330;12.374;2022-10-16T17:07:43;19.30;1.00
12438;DHT22;6283;51.330;12.374;2022-10-16T17:10:09;19.20;1.00
12438;DHT22;6283;51.330;12.374;2022-10-16T17:12:35;19.20;1.00
12438;DHT22;6283;51.330;12.374;2022-10-16T17:15:01;19.20;1.00
12438;DHT22;6283;51.330;12.374;2022-10-16T17:17:26;19.20;1.00
12438;DHT22;6283;51.330;12.374;2022-10-16T17:19:52;19.20;1.00
12438;DHT22;6283;51.330;12.374;2022-10-16T17:22:18;19.20;1.00
12438;DHT22;6283;51.330;12.374;2022-10-16T17:24:47;19.20;1.00
12438;DHT22;6283;51.330;12.374;2022-10-16T17:27:15;19.20;1.00
12438;DHT22;6283;51.330;12.374;2022-10-16T17:29:40;19.20;1.00
12438;DHT22;6283;51.330;12.374;2022-10-16T17:32:06;19.10;1.00
12438;DHT22;6283;51.330;12.374;2022-10-16T17:34:32;19.10;1.00
12438;DHT22;6283;51.330;12.374;2022-10-16T17:36:57;19.10;1.00
12438;DHT22;6283;51.330;12.374;2022-10-16T17:39:23;19.10;1.00
12438;DHT22;6283;51.330;12.374;2022-10-16T17:41:48;19.10;1.00
12438;DHT22;6283;51.330;12.374;2022-10-16T17:44:15;19.10;1.00
12438;DHT22;6283;51.330;12.374;2022-10-16T17:46:49;19.10;1.00
12438;DHT22;6283;51.330;12.374;2022-10-16T17:49:15;19.00;1.00
12438;DHT22;6283;51.330;12.374;2022-10-16T17:51:41;19.00;1.00
12438;DHT22;6283;51.330;12.374;2022-10-16T17:54:07;19.00;1.00
12438;DHT22;6283;51.330;12.374;2022-10-16T17:56:33;19.00;1.00
12438;DHT22;6283;51.330;12.374;2022-10-16T17:59:00;18.90;1.00
12438;DHT22;6283;51.330;12.374;2022-10-16T18:01:34;18.90;1.00
12438;DHT22;6283;51.330;12.374;2022-10-16T18:04:03;18.80;1.00
12438;DHT22;6283;51.330;12.374;2022-10-16T18:06:32;18.80;1.00
12438;DHT22;6283;51.330;12.374;2022-10-16T18:08:58;18.70;1.00
12438;DHT22;6283;51.330;12.374;2022-10-16T18:11:25;18.70;1.00
12438;DHT22;6283;51.330;12.374;2022-10-16T18:13:52;18.70;1.00
12438;DHT22;6283;51.330;12.374;2022-10-16T18:16:18;18.70;1.00